createdAt,value
2018-11-22T12:17:43.628Z,50.57
2018-11-22T12:20:12.909Z,44.20
2018-11-22T12:22:42.723Z,48.10
2018-11-22T12:25:13.357Z,50.47
2018-11-22T12:27:42.459Z,50.40
2018-11-22T12:30:14.982Z,49.13
2018-11-22T12:33:50.568Z,56.70
2018-11-22T12:36:21.978Z,62.30
2018-11-22T12:38:50.470Z,53.90
2018-11-22T12:41:18.962Z,51.93
2018-11-22T12:43:47.476Z,53.00
2018-11-22T12:46:15.888Z,54.90
2018-11-22T12:48:44.301Z,54.20
2018-11-22T12:51:12.736Z,48.83
2018-11-22T12:53:41.147Z,53.30
2018-11-22T12:56:10.423Z,51.00
2018-11-22T12:58:38.854Z,52.10
2018-11-22T13:01:07.345Z,50.50
2018-11-22T13:03:35.760Z,53.60
2018-11-22T13:06:04.198Z,49.80
2018-11-22T13:08:32.606Z,58.07
2018-11-22T13:11:01.063Z,61.37
2018-11-22T13:13:29.544Z,75.50
2018-11-22T13:15:57.991Z,84.87
2018-11-22T13:18:26.398Z,92.87
2018-11-22T13:20:54.839Z,82.53
2018-11-22T13:23:23.271Z,74.60
2018-11-22T13:25:51.706Z,66.93
2018-11-22T13:28:20.124Z,62.03
2018-11-22T13:30:48.543Z,62.33
2018-11-22T13:33:16.982Z,52.57
2018-11-22T13:35:45.418Z,56.90
2018-11-22T13:38:13.845Z,56.00
2018-11-22T13:40:42.289Z,53.00
2018-11-22T13:43:10.701Z,56.40
2018-11-22T13:45:39.116Z,57.70
2018-11-22T13:48:07.539Z,56.97
2018-11-22T13:50:41.942Z,50.13
2018-11-22T13:53:06.037Z,57.90
2018-11-22T13:55:34.503Z,60.50
2018-11-22T13:58:02.964Z,70.53
2018-11-22T14:00:32.581Z,67.80
2018-11-22T14:03:02.497Z,67.37
2018-11-22T14:05:30.894Z,68.87
2018-11-22T14:07:59.390Z,62.37
2018-11-22T14:10:27.794Z,77.00
2018-11-22T14:12:56.223Z,67.93
2018-11-22T14:15:26.964Z,70.90
2018-11-22T14:17:57.083Z,71.47
2018-11-22T14:20:35.732Z,69.70
2018-11-22T14:23:04.210Z,69.83
2018-11-22T14:25:32.652Z,70.33
2018-11-22T14:28:01.045Z,80.03
2018-11-22T14:30:32.214Z,74.73
2018-11-22T14:33:00.618Z,77.07
2018-11-22T14:35:29.045Z,79.17
2018-11-22T14:37:57.491Z,79.17
2018-11-22T14:40:30.301Z,73.67
2018-11-22T14:42:58.813Z,79.10
2018-11-22T14:45:28.060Z,80.37
2018-11-22T14:47:57.478Z,74.80
2018-11-22T14:50:29.888Z,70.13
2018-11-22T14:53:02.565Z,80.47
2018-11-22T14:55:31.329Z,81.93
2018-11-22T14:58:00.408Z,75.17
2018-11-22T15:00:37.281Z,79.63
2018-11-22T15:03:06.181Z,79.07
2018-11-22T15:05:34.724Z,85.63
2018-11-22T15:08:03.379Z,82.37
2018-11-22T15:13:11.515Z,86.70
2018-11-22T15:18:50.071Z,76.47
2018-11-22T15:21:21.524Z,89.80
2018-11-22T15:23:57.249Z,83.70
2018-11-22T15:26:30.714Z,85.77
2018-11-22T15:28:59.273Z,90.07
2018-11-22T15:31:36.208Z,87.40
2018-11-22T15:34:05.579Z,84.90
2018-11-22T15:36:34.651Z,84.13
2018-11-22T15:39:03.373Z,92.80
2018-11-22T15:41:31.851Z,84.80
2018-11-22T15:44:00.373Z,80.67
2018-11-22T15:46:28.814Z,87.33
2018-11-22T15:48:57.337Z,83.90
2018-11-22T15:51:27.289Z,93.03
2018-11-22T15:53:57.036Z,82.43
2018-11-22T15:56:26.854Z,84.90
2018-11-22T15:58:55.793Z,98.97
2018-11-22T16:01:28.818Z,93.10
2018-11-22T16:03:57.242Z,93.50
2018-11-22T16:06:28.615Z,103.17
2018-11-22T16:11:51.066Z,90.10
2018-11-22T16:14:21.141Z,98.60
2018-11-22T16:16:52.684Z,95.40
2018-11-22T16:19:22.048Z,92.67
2018-11-22T16:21:58.396Z,86.43
2018-11-22T16:24:27.531Z,95.17
2018-11-22T16:26:57.513Z,83.77
2018-11-22T16:41:14.831Z,97.87
2018-11-22T16:43:48.300Z,107.97
2018-11-22T16:46:17.173Z,102.83
2018-11-22T16:54:22.738Z,94.43
2018-11-22T16:56:51.220Z,98.50
2018-11-22T16:59:19.677Z,95.97
2018-11-22T17:01:48.159Z,92.30
2018-11-22T17:04:16.764Z,91.50
2018-11-22T17:06:45.329Z,96.40
2018-11-22T17:09:13.859Z,100.83
2018-11-22T17:11:42.371Z,103.00
2018-11-22T17:14:10.969Z,97.00
2018-11-22T17:16:39.563Z,110.07
2018-11-22T17:19:08.085Z,114.00
2018-11-22T17:21:36.646Z,116.57
2018-11-22T17:24:06.390Z,114.60
2018-11-22T17:26:34.831Z,96.43
2018-11-22T17:29:03.753Z,97.93
2018-11-22T17:31:32.310Z,101.93
2018-11-22T17:34:00.825Z,97.10
2018-11-22T17:36:29.293Z,98.17
2018-11-22T17:38:57.745Z,98.70
2018-11-22T17:41:26.311Z,101.87
2018-11-22T17:43:54.821Z,109.43
2018-11-22T17:46:23.329Z,102.53
2018-11-22T17:48:51.927Z,104.43
2018-11-22T17:51:20.422Z,91.47
2018-11-22T17:53:49.014Z,93.63
2018-11-22T17:56:17.508Z,98.03
2018-11-22T17:58:46.000Z,90.37
2018-11-22T18:01:14.840Z,98.33
2018-11-22T18:03:44.420Z,93.87
2018-11-22T18:06:13.683Z,94.17
2018-11-22T18:08:42.222Z,93.53
2018-11-22T18:11:11.064Z,98.63
2018-11-22T18:13:39.488Z,98.93
2018-11-22T18:16:07.949Z,91.60
2018-11-22T18:18:36.448Z,94.03
2018-11-22T18:21:05.742Z,84.53
2018-11-22T18:23:34.193Z,85.07
2018-11-22T18:26:02.705Z,81.87
2018-11-22T18:28:31.199Z,88.27
2018-11-22T18:30:59.635Z,85.63
2018-11-22T18:33:28.109Z,92.80
2018-11-22T18:35:56.574Z,96.27
2018-11-22T18:38:24.987Z,88.03
2018-11-22T18:40:53.469Z,89.80
2018-11-22T18:43:21.885Z,85.70
2018-11-22T18:45:50.534Z,94.00
2018-11-22T18:48:19.962Z,102.20
2018-11-22T18:50:48.655Z,92.63
2018-11-22T18:53:17.076Z,92.30
2018-11-22T18:55:45.758Z,91.67
2018-11-22T18:58:14.248Z,92.07
2018-11-22T19:00:44.366Z,101.10
2018-11-22T19:03:14.589Z,104.60
2018-11-22T19:05:43.063Z,90.63
2018-11-22T19:08:11.526Z,90.03
2018-11-22T19:10:41.104Z,97.23
2018-11-22T19:13:10.381Z,95.47
2018-11-22T19:15:43.404Z,102.63
2018-11-22T19:18:13.124Z,100.20
2018-11-22T19:20:42.939Z,95.50
2018-11-22T19:23:12.133Z,98.03
2018-11-22T19:25:40.677Z,95.03
2018-11-22T19:28:09.704Z,91.13
2018-11-22T19:30:39.809Z,103.60
2018-11-22T19:33:09.623Z,100.67
2018-11-22T19:35:40.852Z,105.70
2018-11-22T19:38:09.435Z,107.07
2018-11-22T19:40:38.930Z,105.63
2018-11-22T19:43:08.162Z,99.93
2018-11-22T19:45:38.030Z,103.63
2018-11-22T19:48:06.862Z,97.63
2018-11-22T19:50:35.496Z,98.13
2018-11-22T19:53:05.310Z,114.87
2018-11-22T19:55:34.723Z,114.37
2018-11-22T19:58:05.562Z,119.00
2018-11-22T20:00:34.098Z,116.47
2018-11-22T20:03:03.844Z,116.83
2018-11-22T20:05:33.801Z,113.43
2018-11-22T20:08:04.042Z,108.90
2018-11-22T20:10:33.895Z,120.77
2018-11-22T20:13:02.366Z,104.97
2018-11-22T20:15:31.065Z,103.30
2018-11-22T20:18:00.394Z,108.47
2018-11-22T20:20:29.149Z,112.90
2018-11-22T20:22:57.931Z,107.87
2018-11-22T20:25:26.472Z,112.63
2018-11-22T20:27:55.926Z,128.70
2018-11-22T20:30:26.862Z,122.37
2018-11-22T20:32:55.439Z,125.90
2018-11-22T20:35:24.124Z,127.03
2018-11-22T20:37:52.930Z,128.57
2018-11-22T20:40:22.526Z,122.47
2018-11-22T20:42:50.977Z,116.87
2018-11-22T20:45:20.822Z,129.23
2018-11-22T20:47:50.964Z,144.63
2018-11-22T20:50:20.729Z,131.17
2018-11-22T20:52:49.195Z,123.70
2018-11-22T20:55:24.444Z,123.80
2018-11-22T20:57:54.255Z,112.33
2018-11-22T21:00:24.071Z,106.90
2018-11-22T21:02:52.531Z,113.13
2018-11-22T21:05:21.835Z,104.37
2018-11-22T21:07:50.263Z,107.10
2018-11-22T21:10:20.170Z,99.97
2018-11-22T21:12:48.654Z,106.57
2018-11-22T21:15:19.491Z,105.80
2018-11-22T21:17:48.954Z,102.87
2018-11-22T21:20:18.576Z,101.97
2018-11-22T21:22:47.038Z,103.57
2018-11-22T21:25:16.848Z,100.07
2018-11-22T21:27:45.321Z,106.57
2018-11-22T21:30:18.214Z,95.00
2018-11-22T21:32:47.514Z,106.93
2018-11-22T21:35:16.312Z,100.90
2018-11-22T21:37:45.301Z,103.37
2018-11-22T21:40:14.823Z,99.77
2018-11-22T21:42:43.118Z,96.10
2018-11-22T21:45:14.730Z,104.03
2018-11-22T21:47:43.334Z,100.90
2018-11-22T21:50:13.034Z,96.43
2018-11-22T21:52:41.470Z,95.37
2018-11-22T21:55:13.443Z,96.10
2018-11-22T21:57:42.667Z,99.47
2018-11-22T22:00:20.642Z,94.07
2018-11-22T22:02:52.710Z,92.27
2018-11-22T22:05:19.360Z,95.20
2018-11-22T22:07:47.830Z,89.77
2018-11-22T22:10:16.284Z,96.73
2018-11-22T22:12:44.719Z,95.60
2018-11-22T22:15:15.152Z,89.10
2018-11-22T22:17:44.416Z,93.93
2018-11-22T22:20:14.738Z,92.77
2018-11-22T22:22:43.258Z,90.90
2018-11-22T22:25:14.040Z,91.53
2018-11-22T22:27:42.852Z,87.73
2018-11-22T22:30:13.794Z,89.90
2018-11-22T22:32:42.875Z,91.97
2018-11-22T22:35:11.320Z,94.93
2018-11-22T22:37:39.923Z,98.60
2018-11-22T22:40:13.337Z,88.60
2018-11-22T22:42:42.897Z,89.57
2018-11-22T22:45:12.023Z,83.37
2018-11-22T22:47:40.450Z,94.50
2018-11-22T22:50:11.355Z,94.77
2018-11-22T22:52:39.812Z,98.27
2018-11-22T22:55:08.706Z,105.20
2018-11-22T22:57:37.134Z,107.23
2018-11-22T23:00:22.598Z,104.33
2018-11-22T23:02:53.198Z,92.67
2018-11-22T23:05:22.296Z,93.53
2018-11-22T23:07:51.078Z,83.83
2018-11-22T23:10:20.320Z,98.57
2018-11-22T23:12:48.758Z,99.03
2018-11-22T23:15:18.153Z,93.80
2018-11-22T23:17:46.603Z,89.03
2018-11-22T23:20:17.315Z,97.03
2018-11-22T23:22:46.340Z,91.77
2018-11-22T23:25:15.365Z,95.27
2018-11-22T23:27:43.782Z,97.70
2018-11-22T23:30:14.382Z,88.43
2018-11-22T23:32:43.784Z,92.20
2018-11-22T23:35:12.197Z,87.70
2018-11-22T23:37:40.915Z,90.87
2018-11-22T23:40:11.543Z,96.13
2018-11-22T23:42:40.694Z,94.93
2018-11-22T23:45:10.763Z,97.57
2018-11-22T23:47:39.761Z,95.93
2018-11-22T23:50:10.181Z,100.23
2018-11-22T23:52:38.616Z,97.17
2018-11-22T23:55:07.652Z,93.40
2018-11-22T23:57:36.100Z,96.33
